sensor_id;sensor_type;location;lat;lon;timestamp;pressure;altitude;pressure_sealevel;temperature;humidity
9822;BME280;4950;46.042;14.472;2023-03-25T00:00:11;97415.84;;;13.64;64.54
9822;BME280;4950;46.042;14.472;2023-03-25T00:02:40;97417.06;;;13.61;64.72
9822;BME280;4950;46.042;14.472;2023-03-25T00:05:10;97415.25;;;13.62;64.58
9822;BME280;4950;46.042;14.472;2023-03-25T00:07:37;97416.25;;;13.61;64.72
9822;BME280;4950;46.042;14.472;2023-03-25T00:10:06;97413.25;;;13.64;64.71
9822;BME280;4950;46.042;14.472;2023-03-25T00:12:33;97414.06;;;13.58;64.83
9822;BME280;4950;46.042;14.472;2023-03-25T00:14:59;97401.03;;;13.58;64.74
9822;BME280;4950;46.042;14.472;2023-03-25T00:17:27;97397.81;;;13.56;64.86
9822;BME280;4950;46.042;14.472;2023-03-25T00:19:55;97394.41;;;13.55;65.14
9822;BME280;4950;46.042;14.472;2023-03-25T00:22:22;97399.25;;;13.52;64.97
9822;BME280;4950;46.042;14.472;2023-03-25T00:24:49;97391.41;;;13.52;65.11
9822;BME280;4950;46.042;14.472;2023-03-25T00:27:17;97386.19;;;13.52;64.86
9822;BME280;4950;46.042;14.472;2023-03-25T00:29:45;97385.59;;;13.50;64.80
9822;BME280;4950;46.042;14.472;2023-03-25T00:32:13;97386.59;;;13.49;65.20
9822;BME280;4950;46.042;14.472;2023-03-25T00:34:40;97387.97;;;13.51;64.78
9822;BME280;4950;46.042;14.472;2023-03-25T00:37:12;97390.00;;;13.49;64.95
9822;BME280;4950;46.042;14.472;2023-03-25T00:39:42;97385.38;;;13.51;64.98
9822;BME280;4950;46.042;14.472;2023-03-25T00:42:09;97377.78;;;13.43;65.07
9822;BME280;4950;46.042;14.472;2023-03-25T00:44:39;97381.38;;;13.49;65.11
9822;BME280;4950;46.042;14.472;2023-03-25T00:47:06;97378.56;;;13.43;65.19
9822;BME280;4950;46.042;14.472;2023-03-25T00:49:33;97376.78;;;13.44;65.12
9822;BME280;4950;46.042;14.472;2023-03-25T00:51:59;97373.59;;;13.42;64.97
9822;BME280;4950;46.042;14.472;2023-03-25T00:54:26;97373.59;;;13.42;65.25
9822;BME280;4950;46.042;14.472;2023-03-25T00:56:53;97376.78;;;13.37;65.27
9822;BME280;4950;46.042;14.472;2023-03-25T00:59:20;97374.00;;;13.39;65.14
9822;BME280;4950;46.042;14.472;2023-03-25T01:01:48;97370.38;;;13.40;65.31
9822;BME280;4950;46.042;14.472;2023-03-25T01:04:17;97366.78;;;13.34;65.63
9822;BME280;4950;46.042;14.472;2023-03-25T01:06:44;97363.59;;;13.32;65.53
9822;BME280;4950;46.042;14.472;2023-03-25T01:09:16;97364.97;;;13.35;65.70
9822;BME280;4950;46.042;14.472;2023-03-25T01:11:44;97359.75;;;13.28;65.79
9822;BME280;4950;46.042;14.472;2023-03-25T01:14:14;97358.94;;;13.28;65.78
9822;BME280;4950;46.042;14.472;2023-03-25T01:16:41;97363.16;;;13.29;66.17
9822;BME280;4950;46.042;14.472;2023-03-25T01:19:10;97350.75;;;13.24;66.07
9822;BME280;4950;46.042;14.472;2023-03-25T01:21:37;97349.13;;;13.23;66.22
9822;BME280;4950;46.042;14.472;2023-03-25T01:24:05;97344.72;;;13.23;65.70
9822;BME280;4950;46.042;14.472;2023-03-25T01:26:32;97339.09;;;13.20;66.40
9822;BME280;4950;46.042;14.472;2023-03-25T01:28:59;97334.72;;;13.20;65.93
9822;BME280;4950;46.042;14.472;2023-03-25T01:31:26;97336.72;;;13.18;66.02
9822;BME280;4950;46.042;14.472;2023-03-25T01:33:54;97347.16;;;13.18;66.02
9822;BME280;4950;46.042;14.472;2023-03-25T01:36:23;97347.16;;;13.18;66.32
9822;BME280;4950;46.042;14.472;2023-03-25T01:38:50;97342.94;;;13.17;66.06
9822;BME280;4950;46.042;14.472;2023-03-25T01:41:17;97343.31;;;13.21;66.15
9822;BME280;4950;46.042;14.472;2023-03-25T01:43:59;97353.94;;;13.33;65.84
9822;BME280;4950;46.042;14.472;2023-03-25T01:46:26;97353.13;;;13.39;65.48
9822;BME280;4950;46.042;14.472;2023-03-25T01:48:53;97340.50;;;13.42;65.18
9822;BME280;4950;46.042;14.472;2023-03-25T01:51:24;97327.66;;;13.48;64.92
9822;BME280;4950;46.042;14.472;2023-03-25T01:53:52;97339.25;;;13.52;64.63
9822;BME280;4950;46.042;14.472;2023-03-25T01:56:24;97334.25;;;13.50;64.88
9822;BME280;4950;46.042;14.472;2023-03-25T01:58:52;97329.81;;;13.51;64.63
9822;BME280;4950;46.042;14.472;2023-03-25T02:01:20;97329.66;;;13.46;64.66
9822;BME280;4950;46.042;14.472;2023-03-25T02:03:47;97334.06;;;13.45;64.82
9822;BME280;4950;46.042;14.472;2023-03-25T02:06:19;97327.25;;;13.44;64.94
9822;BME280;4950;46.042;14.472;2023-03-25T02:08:52;97323.81;;;13.43;65.16
9822;BME280;4950;46.042;14.472;2023-03-25T02:11:20;97323.81;;;13.43;65.15
9822;BME280;4950;46.042;14.472;2023-03-25T02:13:50;97327.25;;;13.44;65.39
9822;BME280;4950;46.042;14.472;2023-03-25T02:16:25;97322.03;;;13.44;65.26
9822;BME280;4950;46.042;14.472;2023-03-25T02:19:03;97320.63;;;13.41;65.62
9822;BME280;4950;46.042;14.472;2023-03-25T02:25:16;97322.03;;;13.37;65.93
9822;BME280;4950;46.042;14.472;2023-03-25T02:27:56;97330.09;;;13.36;66.12
9822;BME280;4950;46.042;14.472;2023-03-25T02:33:39;97316.88;;;13.31;66.68
9822;BME280;4950;46.042;14.472;2023-03-25T02:36:44;97323.47;;;13.33;66.83
9822;BME280;4950;46.042;14.472;2023-03-25T02:39:21;97317.41;;;13.39;66.64
9822;BME280;4950;46.042;14.472;2023-03-25T02:41:52;97315.84;;;13.38;66.82
9822;BME280;4950;46.042;14.472;2023-03-25T02:44:26;97322.28;;;13.36;66.90
9822;BME280;4950;46.042;14.472;2023-03-25T02:46:59;97320.03;;;13.39;66.99
9822;BME280;4950;46.042;14.472;2023-03-25T02:49:30;97316.03;;;13.37;67.19
9822;BME280;4950;46.042;14.472;2023-03-25T02:52:01;97324.88;;;13.36;67.41
9822;BME280;4950;46.042;14.472;2023-03-25T02:54:32;97316.47;;;13.34;67.50
9822;BME280;4950;46.042;14.472;2023-03-25T02:57:01;97329.50;;;13.34;67.39
9822;BME280;4950;46.042;14.472;2023-03-25T02:59:30;97328.06;;;13.38;67.43
9822;BME280;4950;46.042;14.472;2023-03-25T03:01:58;97333.66;;;13.41;67.25
9822;BME280;4950;46.042;14.472;2023-03-25T03:04:26;97337.28;;;13.40;67.22
9822;BME280;4950;46.042;14.472;2023-03-25T03:06:54;97328.44;;;13.41;67.27
9822;BME280;4950;46.042;14.472;2023-03-25T03:09:33;97326.44;;;13.43;67.15
9822;BME280;4950;46.042;14.472;2023-03-25T03:12:14;97329.03;;;13.43;67.27
9822;BME280;4950;46.042;14.472;2023-03-25T03:14:55;97331.28;;;13.40;67.38
9822;BME280;4950;46.042;14.472;2023-03-25T03:17:30;97319.63;;;13.42;67.62
9822;BME280;4950;46.042;14.472;2023-03-25T03:20:10;97323.22;;;13.48;67.46
9822;BME280;4950;46.042;14.472;2023-03-25T03:22:41;97327.06;;;13.46;67.59
9822;BME280;4950;46.042;14.472;2023-03-25T03:25:18;97320.22;;;13.45;67.72
9822;BME280;4950;46.042;14.472;2023-03-25T03:27:50;97321.06;;;13.38;68.18
9822;BME280;4950;46.042;14.472;2023-03-25T03:30:25;97314.66;;;13.34;68.63
9822;BME280;4950;46.042;14.472;2023-03-25T03:33:01;97317.66;;;13.31;68.85
9822;BME280;4950;46.042;14.472;2023-03-25T03:35:36;97320.06;;;13.33;68.93
9822;BME280;4950;46.042;14.472;2023-03-25T03:38:05;97325.66;;;13.36;69.10
9822;BME280;4950;46.042;14.472;2023-03-25T03:40:35;97322.25;;;13.42;68.69
9822;BME280;4950;46.042;14.472;2023-03-25T03:43:06;97318.44;;;13.38;69.18
9822;BME280;4950;46.042;14.472;2023-03-25T03:45:37;97319.00;;;13.47;68.93
9822;BME280;4950;46.042;14.472;2023-03-25T03:48:09;97319.00;;;13.54;68.58
9822;BME280;4950;46.042;14.472;2023-03-25T03:50:40;97320.19;;;13.58;68.63
9822;BME280;4950;46.042;14.472;2023-03-25T03:53:13;97320.34;;;13.63;68.39
9822;BME280;4950;46.042;14.472;2023-03-25T03:55:47;97317.91;;;13.68;68.13
9822;BME280;4950;46.042;14.472;2023-03-25T03:58:19;97321.91;;;13.71;68.05
9822;BME280;4950;46.042;14.472;2023-03-25T04:00:52;97332.34;;;13.71;67.83
9822;BME280;4950;46.042;14.472;2023-03-25T04:03:27;97337.34;;;13.72;68.12
9822;BME280;4950;46.042;14.472;2023-03-25T04:06:02;97335.34;;;13.74;67.86
9822;BME280;4950;46.042;14.472;2023-03-25T04:08:37;97337.16;;;13.74;68.28
9822;BME280;4950;46.042;14.472;2023-03-25T04:11:10;97339.38;;;13.77;68.23
9822;BME280;4950;46.042;14.472;2023-03-25T04:13:41;97332.34;;;13.77;68.10
9822;BME280;4950;46.042;14.472;2023-03-25T04:16:10;97341.38;;;13.75;67.48
9822;BME280;4950;46.042;14.472;2023-03-25T04:18:37;97337.34;;;13.72;67.68
9822;BME280;4950;46.042;14.472;2023-03-25T04:21:04;97345.19;;;13.72;67.60
9822;BME280;4950;46.042;14.472;2023-03-25T04:23:31;97343.16;;;13.74;67.42
9822;BME280;4950;46.042;14.472;2023-03-25T04:25:59;97349.63;;;13.72;67.66
9822;BME280;4950;46.042;14.472;2023-03-25T04:28:28;97357.47;;;13.65;67.68
9822;BME280;4950;46.042;14.472;2023-03-25T04:30:56;97349.03;;;13.63;67.90
9822;BME280;4950;46.042;14.472;2023-03-25T04:33:25;97349.84;;;13.63;67.92
9822;BME280;4950;46.042;14.472;2023-03-25T04:35:53;97350.06;;;13.62;68.19
9822;BME280;4950;46.042;14.472;2023-03-25T04:38:20;97351.63;;;13.63;68.12
9822;BME280;4950;46.042;14.472;2023-03-25T04:40:47;97346.81;;;13.67;67.91
9822;BME280;4950;46.042;14.472;2023-03-25T04:43:14;97350.44;;;13.66;68.09
9822;BME280;4950;46.042;14.472;2023-03-25T04:45:43;97351.25;;;13.66;68.31
9822;BME280;4950;46.042;14.472;2023-03-25T04:48:19;97351.63;;;13.63;68.72
9822;BME280;4950;46.042;14.472;2023-03-25T04:50:46;97354.63;;;13.67;69.18
9822;BME280;4950;46.042;14.472;2023-03-25T04:53:16;97359.66;;;13.68;69.35
9822;BME280;4950;46.042;14.472;2023-03-25T04:55:42;97364.28;;;13.66;70.24
9822;BME280;4950;46.042;14.472;2023-03-25T04:58:12;97374.91;;;13.71;70.34
9822;BME280;4950;46.042;14.472;2023-03-25T05:00:39;97363.66;;;13.71;70.77
9822;BME280;4950;46.042;14.472;2023-03-25T05:03:09;97371.06;;;13.74;70.74
9822;BME280;4950;46.042;14.472;2023-03-25T05:05:37;97368.47;;;13.74;71.16
9822;BME280;4950;46.042;14.472;2023-03-25T05:08:03;97369.25;;;13.74;71.14
9822;BME280;4950;46.042;14.472;2023-03-25T05:10:30;97378.69;;;13.75;71.43
9822;BME280;4950;46.042;14.472;2023-03-25T05:12:59;97372.47;;;13.76;71.54
9822;BME280;4950;46.042;14.472;2023-03-25T05:15:26;97385.09;;;13.79;71.91
9822;BME280;4950;46.042;14.472;2023-03-25T05:17:54;97389.13;;;13.75;72.54
9822;BME280;4950;46.042;14.472;2023-03-25T05:20:22;97384.31;;;13.72;72.75
9822;BME280;4950;46.042;14.472;2023-03-25T05:22:49;97397.94;;;13.74;73.03
9822;BME280;4950;46.042;14.472;2023-03-25T05:25:17;97389.72;;;13.77;73.35
9822;BME280;4950;46.042;14.472;2023-03-25T05:27:47;97393.13;;;13.78;73.33
9822;BME280;4950;46.042;14.472;2023-03-25T05:30:14;97400.75;;;13.73;75.02
9822;BME280;4950;46.042;14.472;2023-03-25T05:32:41;97404.78;;;13.69;75.17
9822;BME280;4950;46.042;14.472;2023-03-25T05:35:10;97406.59;;;13.68;74.46
9822;BME280;4950;46.042;14.472;2023-03-25T05:37:38;97409.81;;;13.70;74.33
9822;BME280;4950;46.042;14.472;2023-03-25T05:40:06;97404.19;;;13.73;74.04
9822;BME280;4950;46.042;14.472;2023-03-25T05:42:34;97419.06;;;13.66;73.86
9822;BME280;4950;46.042;14.472;2023-03-25T05:45:02;97419.25;;;13.65;73.66
9822;BME280;4950;46.042;14.472;2023-03-25T05:47:29;97417.50;;;13.45;73.80
9822;BME280;4950;46.042;14.472;2023-03-25T05:49:55;97422.31;;;13.41;74.39
9822;BME280;4950;46.042;14.472;2023-03-25T05:52:22;97420.72;;;13.40;74.57
9822;BME280;4950;46.042;14.472;2023-03-25T05:54:51;97425.34;;;13.38;74.93
9822;BME280;4950;46.042;14.472;2023-03-25T05:57:18;97420.13;;;13.38;74.62
9822;BME280;4950;46.042;14.472;2023-03-25T05:59:44;97425.13;;;13.40;74.77
9822;BME280;4950;46.042;14.472;2023-03-25T06:02:14;97432.94;;;13.47;74.06
9822;BME280;4950;46.042;14.472;2023-03-25T06:04:41;97429.97;;;13.36;74.54
9822;BME280;4950;46.042;14.472;2023-03-25T06:07:09;97433.94;;;13.19;75.30
9822;BME280;4950;46.042;14.472;2023-03-25T06:09:40;97437.38;;;13.13;76.05
9822;BME280;4950;46.042;14.472;2023-03-25T06:12:13;97445.19;;;13.13;76.34
9822;BME280;4950;46.042;14.472;2023-03-25T06:14:40;97436.16;;;13.15;76.79
9822;BME280;4950;46.042;14.472;2023-03-25T06:17:10;97448.38;;;13.15;76.94
9822;BME280;4950;46.042;14.472;2023-03-25T06:19:37;97445.97;;;13.20;77.29
9822;BME280;4950;46.042;14.472;2023-03-25T06:22:04;97448.78;;;13.25;77.96
9822;BME280;4950;46.042;14.472;2023-03-25T06:24:33;97459.44;;;13.30;78.24
9822;BME280;4950;46.042;14.472;2023-03-25T06:27:00;97466.06;;;13.33;78.79
9822;BME280;4950;46.042;14.472;2023-03-25T06:29:28;97472.66;;;13.35;78.97
9822;BME280;4950;46.042;14.472;2023-03-25T06:31:55;97477.09;;;13.35;79.38
9822;BME280;4950;46.042;14.472;2023-03-25T06:34:21;97483.31;;;13.34;79.81
9822;BME280;4950;46.042;14.472;2023-03-25T06:36:48;97474.44;;;13.21;80.55
9822;BME280;4950;46.042;14.472;2023-03-25T06:39:18;97479.66;;;13.21;80.48
9822;BME280;4950;46.042;14.472;2023-03-25T06:41:45;97485.69;;;13.15;79.80
9822;BME280;4950;46.042;14.472;2023-03-25T06:44:12;97487.69;;;13.13;79.34
9822;BME280;4950;46.042;14.472;2023-03-25T06:46:40;97486.47;;;13.09;77.22
9822;BME280;4950;46.042;14.472;2023-03-25T06:49:07;97491.28;;;13.06;76.42
9822;BME280;4950;46.042;14.472;2023-03-25T06:51:33;97503.91;;;12.95;76.79
9822;BME280;4950;46.042;14.472;2023-03-25T06:54:00;97502.28;;;12.94;77.37
9822;BME280;4950;46.042;14.472;2023-03-25T06:56:27;97498.28;;;12.98;77.57
9822;BME280;4950;46.042;14.472;2023-03-25T06:58:53;97498.28;;;12.85;79.11
9822;BME280;4950;46.042;14.472;2023-03-25T07:01:20;97502.25;;;12.81;79.71
9822;BME280;4950;46.042;14.472;2023-03-25T07:03:48;97500.28;;;12.83;79.52
9822;BME280;4950;46.042;14.472;2023-03-25T07:06:17;97510.06;;;12.81;80.08
9822;BME280;4950;46.042;14.472;2023-03-25T07:08:44;97511.88;;;12.80;80.55
9822;BME280;4950;46.042;14.472;2023-03-25T07:11:12;97518.91;;;12.80;80.77
9822;BME280;4950;46.042;14.472;2023-03-25T07:13:39;97524.50;;;12.70;81.55
9822;BME280;4950;46.042;14.472;2023-03-25T07:16:07;97528.06;;;12.62;82.06
9822;BME280;4950;46.042;14.472;2023-03-25T07:18:34;97526.25;;;12.56;81.76
9822;BME280;4950;46.042;14.472;2023-03-25T07:21:03;97523.03;;;12.54;81.44
9822;BME280;4950;46.042;14.472;2023-03-25T07:23:30;97514.63;;;12.52;81.04
9822;BME280;4950;46.042;14.472;2023-03-25T07:25:56;97525.41;;;12.49;81.32
9822;BME280;4950;46.042;14.472;2023-03-25T07:28:23;97530.63;;;12.49;81.66
9822;BME280;4950;46.042;14.472;2023-03-25T07:30:50;97545.03;;;12.52;80.98
9822;BME280;4950;46.042;14.472;2023-03-25T07:33:16;97551.25;;;12.51;80.30
9822;BME280;4950;46.042;14.472;2023-03-25T07:35:43;97553.84;;;12.44;80.13
9822;BME280;4950;46.042;14.472;2023-03-25T07:38:11;97555.19;;;12.27;80.41
9822;BME280;4950;46.042;14.472;2023-03-25T07:40:38;97551.72;;;12.19;80.79
9822;BME280;4950;46.042;14.472;2023-03-25T07:43:05;97555.91;;;12.14;80.89
9822;BME280;4950;46.042;14.472;2023-03-25T07:45:32;97561.69;;;12.09;80.97
9822;BME280;4950;46.042;14.472;2023-03-25T07:47:59;97563.88;;;12.05;81.24
9822;BME280;4950;46.042;14.472;2023-03-25T07:50:26;97567.84;;;12.01;81.03
9822;BME280;4950;46.042;14.472;2023-03-25T07:52:52;97563.63;;;12.00;81.30
9822;BME280;4950;46.042;14.472;2023-03-25T07:55:21;97557.78;;;11.92;81.39
9822;BME280;4950;46.042;14.472;2023-03-25T07:57:47;97569.78;;;11.93;81.01
9822;BME280;4950;46.042;14.472;2023-03-25T08:00:14;97582.66;;;11.79;80.88
9822;BME280;4950;46.042;14.472;2023-03-25T08:02:41;97593.44;;;11.76;80.50
9822;BME280;4950;46.042;14.472;2023-03-25T08:05:08;97589.66;;;11.79;79.96
9822;BME280;4950;46.042;14.472;2023-03-25T08:07:35;97588.44;;;11.75;79.35
9822;BME280;4950;46.042;14.472;2023-03-25T08:10:01;97594.56;;;11.67;79.79
9822;BME280;4950;46.042;14.472;2023-03-25T08:12:30;97594.56;;;11.67;79.93
9822;BME280;4950;46.042;14.472;2023-03-25T08:14:56;97585.53;;;11.63;79.88
9822;BME280;4950;46.042;14.472;2023-03-25T08:17:24;97581.13;;;11.63;79.36
9822;BME280;4950;46.042;14.472;2023-03-25T08:19:51;97577.09;;;11.33;81.05
9822;BME280;4950;46.042;14.472;2023-03-25T08:22:17;97570.78;;;11.20;81.35
9822;BME280;4950;46.042;14.472;2023-03-25T08:24:44;97569.03;;;11.06;82.08
9822;BME280;4950;46.042;14.472;2023-03-25T08:27:11;97577.75;;;10.98;82.42
9822;BME280;4950;46.042;14.472;2023-03-25T08:29:39;97591.22;;;10.87;82.33
9822;BME280;4950;46.042;14.472;2023-03-25T08:32:06;97598.47;;;10.92;81.43
9822;BME280;4950;46.042;14.472;2023-03-25T08:34:33;97590.03;;;10.90;81.48
9822;BME280;4950;46.042;14.472;2023-03-25T08:37:04;97584.97;;;10.81;80.72
9822;BME280;4950;46.042;14.472;2023-03-25T08:39:32;97597.31;;;10.79;80.14
9822;BME280;4950;46.042;14.472;2023-03-25T08:42:04;97610.41;;;10.86;80.84
9822;BME280;4950;46.042;14.472;2023-03-25T08:44:31;97613.69;;;10.95;80.83
9822;BME280;4950;46.042;14.472;2023-03-25T08:46:59;97624.78;;;11.03;81.15
9822;BME280;4950;46.042;14.472;2023-03-25T08:49:26;97624.03;;;11.10;81.54
9822;BME280;4950;46.042;14.472;2023-03-25T08:51:53;97621.69;;;11.15;81.42
9822;BME280;4950;46.042;14.472;2023-03-25T08:54:22;97627.75;;;11.22;81.09
9822;BME280;4950;46.042;14.472;2023-03-25T08:56:49;97623.53;;;11.21;80.88
9822;BME280;4950;46.042;14.472;2023-03-25T08:59:15;97620.56;;;11.24;80.75
9822;BME280;4950;46.042;14.472;2023-03-25T09:01:42;97629.63;;;11.28;79.88
9822;BME280;4950;46.042;14.472;2023-03-25T09:04:11;97628.63;;;11.29;79.81
9822;BME280;4950;46.042;14.472;2023-03-25T09:06:38;97627.28;;;11.33;79.75
9822;BME280;4950;46.042;14.472;2023-03-25T09:09:05;97627.56;;;11.23;80.66
9822;BME280;4950;46.042;14.472;2023-03-25T09:11:33;97635.09;;;11.18;82.04
9822;BME280;4950;46.042;14.472;2023-03-25T09:14:00;97646.28;;;11.19;81.86
9822;BME280;4950;46.042;14.472;2023-03-25T09:16:28;97640.69;;;11.15;82.24
9822;BME280;4950;46.042;14.472;2023-03-25T09:18:55;97650.25;;;11.15;81.78
9822;BME280;4950;46.042;14.472;2023-03-25T09:21:23;97654.22;;;11.11;82.27
9822;BME280;4950;46.042;14.472;2023-03-25T09:23:50;97663.06;;;11.16;82.05
9822;BME280;4950;46.042;14.472;2023-03-25T09:26:16;97667.69;;;11.21;82.53
9822;BME280;4950;46.042;14.472;2023-03-25T09:28:43;97664.31;;;11.20;82.73
9822;BME280;4950;46.042;14.472;2023-03-25T09:31:10;97663.69;;;11.18;83.13
9822;BME280;4950;46.042;14.472;2023-03-25T09:33:37;97656.50;;;11.20;82.70
9822;BME280;4950;46.042;14.472;2023-03-25T09:36:04;97652.84;;;11.15;83.08
9822;BME280;4950;46.042;14.472;2023-03-25T09:38:33;97656.44;;;11.14;83.13
9822;BME280;4950;46.042;14.472;2023-03-25T09:41:03;97669.16;;;11.23;83.02
9822;BME280;4950;46.042;14.472;2023-03-25T09:43:36;97673.00;;;11.27;83.44
9822;BME280;4950;46.042;14.472;2023-03-25T09:46:06;97677.56;;;11.25;82.87
9822;BME280;4950;46.042;14.472;2023-03-25T09:48:36;97675.41;;;11.29;82.22
9822;BME280;4950;46.042;14.472;2023-03-25T09:51:05;97666.63;;;11.30;82.93
9822;BME280;4950;46.042;14.472;2023-03-25T09:53:37;97678.31;;;11.19;82.53
9822;BME280;4950;46.042;14.472;2023-03-25T09:56:10;97705.88;;;11.20;82.66
9822;BME280;4950;46.042;14.472;2023-03-25T09:58:41;97724.00;;;11.14;82.88
9822;BME280;4950;46.042;14.472;2023-03-25T10:01:22;97731.69;;;11.07;83.74
9822;BME280;4950;46.042;14.472;2023-03-25T10:04:02;97721.03;;;11.17;83.52
9822;BME280;4950;46.042;14.472;2023-03-25T10:06:42;97723.44;;;11.18;81.43
9822;BME280;4950;46.042;14.472;2023-03-25T10:09:24;97720.41;;;11.15;82.66
9822;BME280;4950;46.042;14.472;2023-03-25T10:12:01;97712.53;;;11.08;83.27
9822;BME280;4950;46.042;14.472;2023-03-25T10:14:38;97717.38;;;10.96;84.05
9822;BME280;4950;46.042;14.472;2023-03-25T10:17:14;97723.84;;;11.00;83.49
9822;BME280;4950;46.042;14.472;2023-03-25T10:19:52;97714.06;;;11.02;83.69
9822;BME280;4950;46.042;14.472;2023-03-25T10:22:25;97721.50;;;10.91;83.11
9822;BME280;4950;46.042;14.472;2023-03-25T10:24:58;97758.03;;;10.89;83.98
9822;BME280;4950;46.042;14.472;2023-03-25T10:27:31;97797.28;;;10.94;83.40
9822;BME280;4950;46.042;14.472;2023-03-25T10:30:04;97824.13;;;10.86;83.50
9822;BME280;4950;46.042;14.472;2023-03-25T10:32:39;97814.47;;;10.80;83.53
9822;BME280;4950;46.042;14.472;2023-03-25T10:35:10;97797.53;;;10.84;83.95
9822;BME280;4950;46.042;14.472;2023-03-25T10:37:40;97783.66;;;10.92;84.09
9822;BME280;4950;46.042;14.472;2023-03-25T10:40:16;97785.47;;;10.92;84.33
9822;BME280;4950;46.042;14.472;2023-03-25T10:42:52;97800.59;;;10.88;85.10
9822;BME280;4950;46.042;14.472;2023-03-25T10:45:23;97817.88;;;10.96;84.14
9822;BME280;4950;46.042;14.472;2023-03-25T10:47:51;97814.22;;;10.90;83.27
9822;BME280;4950;46.042;14.472;2023-03-25T10:50:20;97793.22;;;10.77;81.28
9822;BME280;4950;46.042;14.472;2023-03-25T10:52:48;97770.75;;;10.69;80.95
9822;BME280;4950;46.042;14.472;2023-03-25T10:55:22;97751.22;;;10.73;81.08
9822;BME280;4950;46.042;14.472;2023-03-25T10:57:50;97744.25;;;10.89;78.43
9822;BME280;4950;46.042;14.472;2023-03-25T11:00:18;97724.38;;;10.81;78.72
9822;BME280;4950;46.042;14.472;2023-03-25T11:02:45;97721.78;;;10.51;80.88
9822;BME280;4950;46.042;14.472;2023-03-25T11:05:15;97724.72;;;10.48;81.69
9822;BME280;4950;46.042;14.472;2023-03-25T11:07:45;97732.94;;;10.52;79.91
9822;BME280;4950;46.042;14.472;2023-03-25T11:10:16;97717.41;;;10.28;81.82
9822;BME280;4950;46.042;14.472;2023-03-25T11:12:45;97705.69;;;10.18;83.24
9822;BME280;4950;46.042;14.472;2023-03-25T11:15:14;97704.78;;;9.87;85.18
9822;BME280;4950;46.042;14.472;2023-03-25T11:17:42;97710.50;;;9.83;85.37
9822;BME280;4950;46.042;14.472;2023-03-25T11:20:17;97712.13;;;9.53;86.25
9822;BME280;4950;46.042;14.472;2023-03-25T11:22:48;97711.16;;;9.54;86.42
9822;BME280;4950;46.042;14.472;2023-03-25T11:25:18;97695.47;;;9.24;87.02
9822;BME280;4950;46.042;14.472;2023-03-25T11:27:52;97688.72;;;9.15;88.33
9822;BME280;4950;46.042;14.472;2023-03-25T11:30:22;97692.91;;;9.16;88.17
9822;BME280;4950;46.042;14.472;2023-03-25T11:32:57;97690.84;;;9.11;88.39
9822;BME280;4950;46.042;14.472;2023-03-25T11:35:27;97687.41;;;9.19;87.74
9822;BME280;4950;46.042;14.472;2023-03-25T11:37:56;97707.75;;;9.30;86.78
9822;BME280;4950;46.042;14.472;2023-03-25T11:40:23;97719.22;;;9.27;85.30
9822;BME280;4950;46.042;14.472;2023-03-25T11:42:53;97700.34;;;9.19;85.40
9822;BME280;4950;46.042;14.472;2023-03-25T11:45:23;97696.00;;;9.11;86.16
9822;BME280;4950;46.042;14.472;2023-03-25T11:47:51;97687.94;;;9.06;86.74
9822;BME280;4950;46.042;14.472;2023-03-25T11:50:20;97690.53;;;9.06;86.06
9822;BME280;4950;46.042;14.472;2023-03-25T11:52:50;97694.91;;;9.05;85.64
9822;BME280;4950;46.042;14.472;2023-03-25T11:55:21;97673.50;;;9.12;85.82
9822;BME280;4950;46.042;14.472;2023-03-25T11:57:52;97645.66;;;9.14;86.86
9822;BME280;4950;46.042;14.472;2023-03-25T12:00:30;97655.22;;;9.13;86.24
9822;BME280;4950;46.042;14.472;2023-03-25T12:02:59;97709.97;;;9.33;85.25
9822;BME280;4950;46.042;14.472;2023-03-25T12:05:27;97737.97;;;9.06;84.68
9822;BME280;4950;46.042;14.472;2023-03-25T12:08:03;97677.34;;;8.93;85.79
9822;BME280;4950;46.042;14.472;2023-03-25T12:10:41;97604.56;;;8.87;86.07
9822;BME280;4950;46.042;14.472;2023-03-25T12:13:19;97602.13;;;8.86;87.10
9822;BME280;4950;46.042;14.472;2023-03-25T12:15:54;97684.06;;;9.02;86.22
9822;BME280;4950;46.042;14.472;2023-03-25T12:18:43;97728.31;;;8.84;86.34
9822;BME280;4950;46.042;14.472;2023-03-25T12:21:21;97701.16;;;8.80;86.93
9822;BME280;4950;46.042;14.472;2023-03-25T12:24:02;97660.97;;;8.92;87.02
9822;BME280;4950;46.042;14.472;2023-03-25T12:26:39;97671.75;;;9.04;86.57
9822;BME280;4950;46.042;14.472;2023-03-25T12:29:31;97680.63;;;9.09;86.21
9822;BME280;4950;46.042;14.472;2023-03-25T12:32:09;97674.44;;;9.19;85.51
9822;BME280;4950;46.042;14.472;2023-03-25T12:34:46;97665.84;;;9.26;85.70
9822;BME280;4950;46.042;14.472;2023-03-25T12:37:27;97669.53;;;9.32;85.61
9822;BME280;4950;46.042;14.472;2023-03-25T12:40:16;97673.03;;;9.39;84.84
9822;BME280;4950;46.042;14.472;2023-03-25T12:42:55;97673.09;;;9.54;84.26
9822;BME280;4950;46.042;14.472;2023-03-25T12:45:34;97676.16;;;9.58;83.50
9822;BME280;4950;46.042;14.472;2023-03-25T12:48:10;97678.53;;;9.67;83.88
9822;BME280;4950;46.042;14.472;2023-03-25T12:50:48;97676.31;;;9.79;84.84
9822;BME280;4950;46.042;14.472;2023-03-25T12:53:35;97678.34;;;10.07;86.52
9822;BME280;4950;46.042;14.472;2023-03-25T12:56:14;97666.38;;;10.59;88.48
9822;BME280;4950;46.042;14.472;2023-03-25T12:59:02;97653.28;;;11.18;87.60
9822;BME280;4950;46.042;14.472;2023-03-25T13:01:43;97646.69;;;11.80;82.48
9822;BME280;4950;46.042;14.472;2023-03-25T13:04:25;97633.53;;;12.38;77.93
9822;BME280;4950;46.042;14.472;2023-03-25T13:07:02;97619.34;;;12.89;72.93
9822;BME280;4950;46.042;14.472;2023-03-25T13:09:33;97607.22;;;13.30;69.25
9822;BME280;4950;46.042;14.472;2023-03-25T13:12:03;97604.63;;;13.63;69.15
9822;BME280;4950;46.042;14.472;2023-03-25T13:14:38;97596.41;;;14.06;65.89
9822;BME280;4950;46.042;14.472;2023-03-25T13:17:11;97598.16;;;14.32;63.18
9822;BME280;4950;46.042;14.472;2023-03-25T13:19:44;97603.09;;;14.60;64.81
9822;BME280;4950;46.042;14.472;2023-03-25T13:22:16;97603.13;;;15.06;62.24
9822;BME280;4950;46.042;14.472;2023-03-25T13:24:47;97606.53;;;15.38;60.29
9822;BME280;4950;46.042;14.472;2023-03-25T13:27:17;97610.34;;;15.42;56.34
9822;BME280;4950;46.042;14.472;2023-03-25T13:29:46;97597.97;;;15.56;56.98
9822;BME280;4950;46.042;14.472;2023-03-25T13:32:17;97603.69;;;15.71;55.04
9822;BME280;4950;46.042;14.472;2023-03-25T13:34:51;97612.13;;;15.80;54.15